sensor_id;sensor_type;location;lat;lon;timestamp;temperature;humidity
17425;DHT22;8830;50.978;5.058;2022-12-13T00:00:58;-3.50;99.90
17425;DHT22;8830;50.978;5.058;2022-12-13T00:03:25;-3.30;99.90
17425;DHT22;8830;50.978;5.058;2022-12-13T00:05:52;-3.60;99.90
17425;DHT22;8830;50.978;5.058;2022-12-13T00:08:22;-3.60;99.90
17425;DHT22;8830;50.978;5.058;2022-12-13T00:10:58;-3.70;99.90
17425;DHT22;8830;50.978;5.058;2022-12-13T00:13:25;-3.80;99.90
17425;DHT22;8830;50.978;5.058;2022-12-13T00:15:57;-3.80;99.90
17425;DHT22;8830;50.978;5.058;2022-12-13T00:18:25;-3.90;99.90
17425;DHT22;8830;50.978;5.058;2022-12-13T00:20:52;-4.00;99.90
17425;DHT22;8830;50.978;5.058;2022-12-13T00:23:19;-4.00;99.90
17425;DHT22;8830;50.978;5.058;2022-12-13T00:25:46;-3.90;99.90
17425;DHT22;8830;50.978;5.058;2022-12-13T00:28:13;-3.90;99.90
17425;DHT22;8830;50.978;5.058;2022-12-13T00:30:42;-3.80;99.90
17425;DHT22;8830;50.978;5.058;2022-12-13T00:33:11;-3.80;99.90
17425;DHT22;8830;50.978;5.058;2022-12-13T00:35:39;-3.80;99.90
17425;DHT22;8830;50.978;5.058;2022-12-13T00:38:08;-3.80;99.90
17425;DHT22;8830;50.978;5.058;2022-12-13T00:40:35;-3.80;99.90
17425;DHT22;8830;50.978;5.058;2022-12-13T00:43:02;-3.80;99.90
17425;DHT22;8830;50.978;5.058;2022-12-13T00:45:29;-3.80;99.90
17425;DHT22;8830;50.978;5.058;2022-12-13T00:47:56;-3.80;99.90
17425;DHT22;8830;50.978;5.058;2022-12-13T00:50:25;-3.80;99.90
17425;DHT22;8830;50.978;5.058;2022-12-13T00:52:52;-3.80;99.90
17425;DHT22;8830;50.978;5.058;2022-12-13T00:55:19;-3.80;99.90
17425;DHT22;8830;50.978;5.058;2022-12-13T00:57:46;-3.80;99.90
17425;DHT22;8830;50.978;5.058;2022-12-13T01:00:13;-3.80;99.90
17425;DHT22;8830;50.978;5.058;2022-12-13T01:02:41;-3.80;99.90
17425;DHT22;8830;50.978;5.058;2022-12-13T01:05:08;-3.90;99.90
17425;DHT22;8830;50.978;5.058;2022-12-13T01:07:36;-4.00;99.90
17425;DHT22;8830;50.978;5.058;2022-12-13T01:10:05;-4.00;99.90
17425;DHT22;8830;50.978;5.058;2022-12-13T01:12:32;-4.00;99.90
17425;DHT22;8830;50.978;5.058;2022-12-13T01:14:59;-4.00;99.90
17425;DHT22;8830;50.978;5.058;2022-12-13T01:17:26;-4.10;99.90
17425;DHT22;8830;50.978;5.058;2022-12-13T01:19:53;-4.10;99.90
17425;DHT22;8830;50.978;5.058;2022-12-13T01:22:20;-4.10;99.90
17425;DHT22;8830;50.978;5.058;2022-12-13T01:24:48;-4.20;99.90
17425;DHT22;8830;50.978;5.058;2022-12-13T01:27:15;-4.20;99.90
17425;DHT22;8830;50.978;5.058;2022-12-13T01:29:43;-4.10;99.90
17425;DHT22;8830;50.978;5.058;2022-12-13T01:32:10;-4.10;99.90
17425;DHT22;8830;50.978;5.058;2022-12-13T01:34:37;-4.10;99.90
17425;DHT22;8830;50.978;5.058;2022-12-13T01:37:04;-4.10;99.90
17425;DHT22;8830;50.978;5.058;2022-12-13T01:39:31;-4.20;99.90
17425;DHT22;8830;50.978;5.058;2022-12-13T01:41:59;-4.20;99.90
17425;DHT22;8830;50.978;5.058;2022-12-13T01:44:57;-4.20;99.90
17425;DHT22;8830;50.978;5.058;2022-12-13T01:47:27;-4.20;99.90
17425;DHT22;8830;50.978;5.058;2022-12-13T01:49:57;-4.20;99.90
17425;DHT22;8830;50.978;5.058;2022-12-13T01:52:27;-3.90;99.90
17425;DHT22;8830;50.978;5.058;2022-12-13T01:54:57;-4.00;99.90
17425;DHT22;8830;50.978;5.058;2022-12-13T01:57:26;-3.90;99.90
17425;DHT22;8830;50.978;5.058;2022-12-13T01:59:54;-3.90;99.90
17425;DHT22;8830;50.978;5.058;2022-12-13T02:02:21;-3.90;99.90
17425;DHT22;8830;50.978;5.058;2022-12-13T02:04:53;-3.90;99.90
17425;DHT22;8830;50.978;5.058;2022-12-13T02:07:27;-3.90;99.90
17425;DHT22;8830;50.978;5.058;2022-12-13T02:09:57;-3.80;99.90
17425;DHT22;8830;50.978;5.058;2022-12-13T02:12:27;-3.70;99.90
17425;DHT22;8830;50.978;5.058;2022-12-13T02:14:55;-3.70;99.90
17425;DHT22;8830;50.978;5.058;2022-12-13T02:17:29;-3.70;99.90
17425;DHT22;8830;50.978;5.058;2022-12-13T02:20:27;-3.80;99.90
17425;DHT22;8830;50.978;5.058;2022-12-13T02:29:14;-4.20;99.90
17425;DHT22;8830;50.978;5.058;2022-12-13T02:31:48;-4.30;99.90
17425;DHT22;8830;50.978;5.058;2022-12-13T02:34:21;-4.30;99.90
17425;DHT22;8830;50.978;5.058;2022-12-13T02:36:56;-4.40;99.90
17425;DHT22;8830;50.978;5.058;2022-12-13T02:39:30;-4.50;99.90
17425;DHT22;8830;50.978;5.058;2022-12-13T02:42:02;-4.50;99.90
17425;DHT22;8830;50.978;5.058;2022-12-13T02:44:34;-4.50;99.90
17425;DHT22;8830;50.978;5.058;2022-12-13T02:47:07;-4.60;99.90
17425;DHT22;8830;50.978;5.058;2022-12-13T02:49:39;-4.60;99.90
17425;DHT22;8830;50.978;5.058;2022-12-13T02:52:08;-4.60;99.90
17425;DHT22;8830;50.978;5.058;2022-12-13T02:54:36;-4.60;99.90
17425;DHT22;8830;50.978;5.058;2022-12-13T02:57:03;-4.60;99.90
17425;DHT22;8830;50.978;5.058;2022-12-13T02:59:35;-4.60;99.90
17425;DHT22;8830;50.978;5.058;2022-12-13T03:02:13;-4.50;99.90
17425;DHT22;8830;50.978;5.058;2022-12-13T03:04:49;-4.50;99.90
17425;DHT22;8830;50.978;5.058;2022-12-13T03:07:40;-4.50;99.90
17425;DHT22;8830;50.978;5.058;2022-12-13T03:10:15;-4.50;99.90
17425;DHT22;8830;50.978;5.058;2022-12-13T03:12:49;-4.50;99.90
17425;DHT22;8830;50.978;5.058;2022-12-13T03:15:40;-4.50;99.90
17425;DHT22;8830;50.978;5.058;2022-12-13T03:18:13;-4.50;99.90
17425;DHT22;8830;50.978;5.058;2022-12-13T03:20:44;-4.40;99.90
17425;DHT22;8830;50.978;5.058;2022-12-13T03:23:12;-4.50;99.90
17425;DHT22;8830;50.978;5.058;2022-12-13T03:25:40;-4.40;99.90
17425;DHT22;8830;50.978;5.058;2022-12-13T03:28:07;-4.40;99.90
17425;DHT22;8830;50.978;5.058;2022-12-13T03:30:34;-4.40;99.90
17425;DHT22;8830;50.978;5.058;2022-12-13T03:33:01;-4.30;99.90
17425;DHT22;8830;50.978;5.058;2022-12-13T03:35:30;-4.30;99.90
17425;DHT22;8830;50.978;5.058;2022-12-13T03:37:57;-4.40;99.90
17425;DHT22;8830;50.978;5.058;2022-12-13T03:40:26;-4.40;99.90
17425;DHT22;8830;50.978;5.058;2022-12-13T03:42:53;-4.40;99.90
17425;DHT22;8830;50.978;5.058;2022-12-13T03:45:21;-4.50;99.90
17425;DHT22;8830;50.978;5.058;2022-12-13T03:47:48;-4.50;99.90
17425;DHT22;8830;50.978;5.058;2022-12-13T03:50:15;-4.50;99.90
17425;DHT22;8830;50.978;5.058;2022-12-13T03:52:44;-4.50;99.90
17425;DHT22;8830;50.978;5.058;2022-12-13T03:55:12;-4.50;99.90
17425;DHT22;8830;50.978;5.058;2022-12-13T03:57:39;-4.50;99.90
17425;DHT22;8830;50.978;5.058;2022-12-13T04:00:07;-4.50;99.90
17425;DHT22;8830;50.978;5.058;2022-12-13T04:02:34;-4.60;99.90
17425;DHT22;8830;50.978;5.058;2022-12-13T04:05:01;-2.80;99.90
17425;DHT22;8830;50.978;5.058;2022-12-13T04:07:28;-4.60;99.90
17425;DHT22;8830;50.978;5.058;2022-12-13T04:09:56;-4.60;99.90
17425;DHT22;8830;50.978;5.058;2022-12-13T04:12:23;-4.60;99.90
17425;DHT22;8830;50.978;5.058;2022-12-13T04:15:08;-4.60;99.90
17425;DHT22;8830;50.978;5.058;2022-12-13T04:17:35;-4.60;99.90
17425;DHT22;8830;50.978;5.058;2022-12-13T04:20:03;-4.60;99.90
17425;DHT22;8830;50.978;5.058;2022-12-13T04:24:59;-4.60;99.90
17425;DHT22;8830;50.978;5.058;2022-12-13T04:27:27;-4.70;99.90
17425;DHT22;8830;50.978;5.058;2022-12-13T04:29:54;-4.70;99.90
17425;DHT22;8830;50.978;5.058;2022-12-13T04:32:21;-4.70;99.90
17425;DHT22;8830;50.978;5.058;2022-12-13T04:34:48;-4.80;99.90
17425;DHT22;8830;50.978;5.058;2022-12-13T04:37:15;-3.60;99.90
17425;DHT22;8830;50.978;5.058;2022-12-13T04:39:42;-4.40;99.90
17425;DHT22;8830;50.978;5.058;2022-12-13T04:42:14;-4.70;99.90
17425;DHT22;8830;50.978;5.058;2022-12-13T04:44:41;-4.70;99.90
17425;DHT22;8830;50.978;5.058;2022-12-13T04:47:08;-4.80;99.90
17425;DHT22;8830;50.978;5.058;2022-12-13T04:49:35;-4.80;99.90
17425;DHT22;8830;50.978;5.058;2022-12-13T04:52:03;-4.80;99.90
17425;DHT22;8830;50.978;5.058;2022-12-13T04:54:30;-4.80;99.90
17425;DHT22;8830;50.978;5.058;2022-12-13T04:56:59;-4.80;99.90
17425;DHT22;8830;50.978;5.058;2022-12-13T04:59:27;-4.90;99.90
17425;DHT22;8830;50.978;5.058;2022-12-13T05:01:54;-4.90;99.90
17425;DHT22;8830;50.978;5.058;2022-12-13T05:04:21;-4.90;99.90
17425;DHT22;8830;50.978;5.058;2022-12-13T05:06:48;-5.00;99.90
17425;DHT22;8830;50.978;5.058;2022-12-13T05:09:15;-4.90;99.90
17425;DHT22;8830;50.978;5.058;2022-12-13T05:11:42;-4.90;99.90
17425;DHT22;8830;50.978;5.058;2022-12-13T05:14:08;-4.90;99.90
17425;DHT22;8830;50.978;5.058;2022-12-13T05:16:37;-4.90;99.90
17425;DHT22;8830;50.978;5.058;2022-12-13T05:19:04;-4.90;99.90
17425;DHT22;8830;50.978;5.058;2022-12-13T05:21:31;-4.90;99.90
17425;DHT22;8830;50.978;5.058;2022-12-13T05:26:31;-4.80;99.90
17425;DHT22;8830;50.978;5.058;2022-12-13T05:28:58;-4.80;99.90
17425;DHT22;8830;50.978;5.058;2022-12-13T05:31:25;-4.70;99.90
17425;DHT22;8830;50.978;5.058;2022-12-13T05:33:54;-4.70;99.90
17425;DHT22;8830;50.978;5.058;2022-12-13T05:36:22;-5.20;99.90
17425;DHT22;8830;50.978;5.058;2022-12-13T05:38:50;-4.60;99.90
17425;DHT22;8830;50.978;5.058;2022-12-13T05:41:19;-4.70;99.90
17425;DHT22;8830;50.978;5.058;2022-12-13T05:43:48;-4.70;99.90
17425;DHT22;8830;50.978;5.058;2022-12-13T05:46:14;-4.80;99.90
17425;DHT22;8830;50.978;5.058;2022-12-13T05:48:42;-4.70;99.90
17425;DHT22;8830;50.978;5.058;2022-12-13T05:51:11;-4.80;99.90
17425;DHT22;8830;50.978;5.058;2022-12-13T05:53:39;-4.80;99.90
17425;DHT22;8830;50.978;5.058;2022-12-13T05:56:07;-4.80;99.90
17425;DHT22;8830;50.978;5.058;2022-12-13T05:58:36;-4.80;99.90
17425;DHT22;8830;50.978;5.058;2022-12-13T06:01:07;-4.80;99.90
17425;DHT22;8830;50.978;5.058;2022-12-13T06:03:34;-4.80;99.90
17425;DHT22;8830;50.978;5.058;2022-12-13T06:06:03;-4.70;99.90
17425;DHT22;8830;50.978;5.058;2022-12-13T06:08:32;-4.70;99.90
17425;DHT22;8830;50.978;5.058;2022-12-13T06:11:00;-4.60;99.90
17425;DHT22;8830;50.978;5.058;2022-12-13T06:13:27;-4.70;99.90
17425;DHT22;8830;50.978;5.058;2022-12-13T06:15:59;-4.70;99.90
17425;DHT22;8830;50.978;5.058;2022-12-13T06:18:26;-4.70;99.90
17425;DHT22;8830;50.978;5.058;2022-12-13T06:20:57;-4.70;99.90
17425;DHT22;8830;50.978;5.058;2022-12-13T06:23:25;-4.80;99.90
17425;DHT22;8830;50.978;5.058;2022-12-13T06:25:53;-4.80;99.90
17425;DHT22;8830;50.978;5.058;2022-12-13T06:28:20;-4.80;99.90
17425;DHT22;8830;50.978;5.058;2022-12-13T06:30:47;-4.90;99.90
17425;DHT22;8830;50.978;5.058;2022-12-13T06:33:17;-4.90;99.90
17425;DHT22;8830;50.978;5.058;2022-12-13T06:35:44;-6.20;99.90
17425;DHT22;8830;50.978;5.058;2022-12-13T06:38:11;-4.90;99.90
17425;DHT22;8830;50.978;5.058;2022-12-13T06:40:39;-5.00;99.90
17425;DHT22;8830;50.978;5.058;2022-12-13T06:43:08;-5.00;99.90
17425;DHT22;8830;50.978;5.058;2022-12-13T06:45:37;-5.00;99.90
17425;DHT22;8830;50.978;5.058;2022-12-13T06:50:33;-5.10;99.90
17425;DHT22;8830;50.978;5.058;2022-12-13T06:53:01;-3.60;99.90
17425;DHT22;8830;50.978;5.058;2022-12-13T06:55:28;-5.00;99.90
17425;DHT22;8830;50.978;5.058;2022-12-13T06:57:56;-5.00;99.90
17425;DHT22;8830;50.978;5.058;2022-12-13T07:00:25;-5.20;99.90
17425;DHT22;8830;50.978;5.058;2022-12-13T07:02:52;-5.20;99.90
17425;DHT22;8830;50.978;5.058;2022-12-13T07:05:19;-5.10;99.90
17425;DHT22;8830;50.978;5.058;2022-12-13T07:07:47;-5.10;99.90
17425;DHT22;8830;50.978;5.058;2022-12-13T07:10:14;-5.10;99.90
17425;DHT22;8830;50.978;5.058;2022-12-13T07:12:42;-5.10;99.90
17425;DHT22;8830;50.978;5.058;2022-12-13T07:15:09;-5.10;99.90
17425;DHT22;8830;50.978;5.058;2022-12-13T07:17:37;-5.00;99.90
17425;DHT22;8830;50.978;5.058;2022-12-13T07:20:06;-5.00;99.90
17425;DHT22;8830;50.978;5.058;2022-12-13T07:22:35;-5.00;99.90
17425;DHT22;8830;50.978;5.058;2022-12-13T07:25:03;-5.00;99.90
17425;DHT22;8830;50.978;5.058;2022-12-13T07:27:30;-4.90;99.90
17425;DHT22;8830;50.978;5.058;2022-12-13T07:29:58;-4.90;99.90
17425;DHT22;8830;50.978;5.058;2022-12-13T07:32:26;-4.80;99.90
17425;DHT22;8830;50.978;5.058;2022-12-13T07:34:54;-4.80;99.90
17425;DHT22;8830;50.978;5.058;2022-12-13T07:37:22;-4.70;99.90
17425;DHT22;8830;50.978;5.058;2022-12-13T07:39:51;-4.60;99.90
17425;DHT22;8830;50.978;5.058;2022-12-13T07:42:22;-4.60;99.90
17425;DHT22;8830;50.978;5.058;2022-12-13T07:44:50;-4.60;99.90
17425;DHT22;8830;50.978;5.058;2022-12-13T07:49:58;-4.60;99.90
17425;DHT22;8830;50.978;5.058;2022-12-13T07:52:26;-4.60;99.90
17425;DHT22;8830;50.978;5.058;2022-12-13T07:54:55;-4.60;99.90
17425;DHT22;8830;50.978;5.058;2022-12-13T07:59:53;-4.50;99.90
17425;DHT22;8830;50.978;5.058;2022-12-13T08:02:30;-4.50;99.90
17425;DHT22;8830;50.978;5.058;2022-12-13T08:05:28;-4.40;99.90
17425;DHT22;8830;50.978;5.058;2022-12-13T08:10:31;-4.70;99.90
17425;DHT22;8830;50.978;5.058;2022-12-13T08:13:05;-4.20;99.90
17425;DHT22;8830;50.978;5.058;2022-12-13T08:18:01;-4.10;99.90
17425;DHT22;8830;50.978;5.058;2022-12-13T08:20:30;-4.00;99.90
17425;DHT22;8830;50.978;5.058;2022-12-13T08:22:58;-4.00;99.90
17425;DHT22;8830;50.978;5.058;2022-12-13T08:27:54;-3.90;99.90
17425;DHT22;8830;50.978;5.058;2022-12-13T08:32:49;-4.40;99.90
17425;DHT22;8830;50.978;5.058;2022-12-13T08:35:22;-3.60;99.90
17425;DHT22;8830;50.978;5.058;2022-12-13T08:37:53;-3.60;99.90
17425;DHT22;8830;50.978;5.058;2022-12-13T08:42:48;-3.50;99.90
17425;DHT22;8830;50.978;5.058;2022-12-13T08:45:16;-3.50;99.90
17425;DHT22;8830;50.978;5.058;2022-12-13T08:47:44;-2.40;99.90
17425;DHT22;8830;50.978;5.058;2022-12-13T08:50:10;-2.90;99.90
17425;DHT22;8830;50.978;5.058;2022-12-13T08:52:38;-3.50;99.90
17425;DHT22;8830;50.978;5.058;2022-12-13T08:55:09;-3.40;99.90
17425;DHT22;8830;50.978;5.058;2022-12-13T08:57:37;-3.40;99.90
17425;DHT22;8830;50.978;5.058;2022-12-13T09:00:06;-3.40;99.90
17425;DHT22;8830;50.978;5.058;2022-12-13T09:02:36;-3.40;99.90
17425;DHT22;8830;50.978;5.058;2022-12-13T09:05:06;-3.30;99.90
17425;DHT22;8830;50.978;5.058;2022-12-13T09:10:04;-3.10;99.90
17425;DHT22;8830;50.978;5.058;2022-12-13T09:12:33;-3.20;99.90
17425;DHT22;8830;50.978;5.058;2022-12-13T09:15:00;-0.10;99.90
17425;DHT22;8830;50.978;5.058;2022-12-13T09:17:29;-2.90;99.90
17425;DHT22;8830;50.978;5.058;2022-12-13T09:20:00;-2.80;99.90
17425;DHT22;8830;50.978;5.058;2022-12-13T09:24:54;-2.70;99.90
17425;DHT22;8830;50.978;5.058;2022-12-13T09:27:21;-2.60;99.90
17425;DHT22;8830;50.978;5.058;2022-12-13T09:29:50;-2.50;99.90
17425;DHT22;8830;50.978;5.058;2022-12-13T09:34:45;-2.60;99.90
17425;DHT22;8830;50.978;5.058;2022-12-13T09:37:12;-2.60;99.90
17425;DHT22;8830;50.978;5.058;2022-12-13T09:39:39;-2.60;99.90
17425;DHT22;8830;50.978;5.058;2022-12-13T09:42:11;-2.60;99.90
17425;DHT22;8830;50.978;5.058;2022-12-13T09:48:06;-2.40;99.90
17425;DHT22;8830;50.978;5.058;2022-12-13T09:50:34;0.00;99.90
17425;DHT22;8830;50.978;5.058;2022-12-13T09:53:04;-2.10;99.90
17425;DHT22;8830;50.978;5.058;2022-12-13T09:55:37;-2.10;99.90
17425;DHT22;8830;50.978;5.058;2022-12-13T09:58:09;-2.10;99.90
17425;DHT22;8830;50.978;5.058;2022-12-13T10:00:37;-1.70;99.90
17425;DHT22;8830;50.978;5.058;2022-12-13T10:03:15;-1.50;99.90
17425;DHT22;8830;50.978;5.058;2022-12-13T10:05:50;-2.00;99.90
17425;DHT22;8830;50.978;5.058;2022-12-13T10:08:24;-1.90;99.90
17425;DHT22;8830;50.978;5.058;2022-12-13T10:10:53;-1.90;99.90
17425;DHT22;8830;50.978;5.058;2022-12-13T10:13:22;-1.90;99.90
17425;DHT22;8830;50.978;5.058;2022-12-13T10:15:58;-1.80;99.90
17425;DHT22;8830;50.978;5.058;2022-12-13T10:18:33;-1.70;99.90
17425;DHT22;8830;50.978;5.058;2022-12-13T10:21:03;-1.70;99.90
17425;DHT22;8830;50.978;5.058;2022-12-13T10:23:32;-1.60;99.90
17425;DHT22;8830;50.978;5.058;2022-12-13T10:25:59;-1.50;99.90
17425;DHT22;8830;50.978;5.058;2022-12-13T10:28:28;-1.50;99.90
17425;DHT22;8830;50.978;5.058;2022-12-13T10:30:57;-1.30;99.90
17425;DHT22;8830;50.978;5.058;2022-12-13T10:33:27;-1.30;99.90
17425;DHT22;8830;50.978;5.058;2022-12-13T10:36:07;-1.10;99.90
17425;DHT22;8830;50.978;5.058;2022-12-13T10:38:36;-1.10;99.90
17425;DHT22;8830;50.978;5.058;2022-12-13T10:41:25;-0.70;99.90
17425;DHT22;8830;50.978;5.058;2022-12-13T10:44:15;-0.50;99.90
17425;DHT22;8830;50.978;5.058;2022-12-13T10:46:52;-0.50;99.90
17425;DHT22;8830;50.978;5.058;2022-12-13T10:49:28;-0.50;99.90
17425;DHT22;8830;50.978;5.058;2022-12-13T10:52:00;-0.30;99.90
17425;DHT22;8830;50.978;5.058;2022-12-13T10:54:29;-0.30;99.90
17425;DHT22;8830;50.978;5.058;2022-12-13T10:56:57;2.70;99.90
17425;DHT22;8830;50.978;5.058;2022-12-13T10:59:31;0.00;99.90
17425;DHT22;8830;50.978;5.058;2022-12-13T11:01:59;3.00;99.90
17425;DHT22;8830;50.978;5.058;2022-12-13T11:04:30;0.20;99.90
17425;DHT22;8830;50.978;5.058;2022-12-13T11:06:59;0.40;99.90
17425;DHT22;8830;50.978;5.058;2022-12-13T11:09:29;3.10;99.90
17425;DHT22;8830;50.978;5.058;2022-12-13T11:12:00;2.70;99.90
17425;DHT22;8830;50.978;5.058;2022-12-13T11:14:31;3.40;99.90
17425;DHT22;8830;50.978;5.058;2022-12-13T11:17:04;0.70;99.90
17425;DHT22;8830;50.978;5.058;2022-12-13T11:19:37;0.60;99.90
17425;DHT22;8830;50.978;5.058;2022-12-13T11:22:07;0.60;99.90
17425;DHT22;8830;50.978;5.058;2022-12-13T11:24:37;0.70;99.90
17425;DHT22;8830;50.978;5.058;2022-12-13T11:27:24;1.90;99.90
17425;DHT22;8830;50.978;5.058;2022-12-13T11:30:07;0.60;99.90
17425;DHT22;8830;50.978;5.058;2022-12-13T11:32:49;0.50;99.90
17425;DHT22;8830;50.978;5.058;2022-12-13T11:35:26;0.50;99.90
17425;DHT22;8830;50.978;5.058;2022-12-13T11:38:02;0.60;99.90
17425;DHT22;8830;50.978;5.058;2022-12-13T11:40:37;0.80;99.90
17425;DHT22;8830;50.978;5.058;2022-12-13T11:43:12;0.90;99.90
17425;DHT22;8830;50.978;5.058;2022-12-13T11:45:46;0.80;99.90
17425;DHT22;8830;50.978;5.058;2022-12-13T11:48:19;0.90;99.90
17425;DHT22;8830;50.978;5.058;2022-12-13T11:50:49;1.00;99.90
17425;DHT22;8830;50.978;5.058;2022-12-13T11:53:26;1.10;99.90
17425;DHT22;8830;50.978;5.058;2022-12-13T11:56:00;1.60;99.90
17425;DHT22;8830;50.978;5.058;2022-12-13T11:58:35;3.30;99.90
17425;DHT22;8830;50.978;5.058;2022-12-13T12:01:08;1.20;99.90
17425;DHT22;8830;50.978;5.058;2022-12-13T12:03:40;1.40;99.90
17425;DHT22;8830;50.978;5.058;2022-12-13T12:06:14;1.60;99.90
17425;DHT22;8830;50.978;5.058;2022-12-13T12:08:49;1.60;99.90
17425;DHT22;8830;50.978;5.058;2022-12-13T12:11:25;1.90;99.90
17425;DHT22;8830;50.978;5.058;2022-12-13T12:13:57;1.60;99.90
17425;DHT22;8830;50.978;5.058;2022-12-13T12:16:34;1.40;99.90
17425;DHT22;8830;50.978;5.058;2022-12-13T12:19:10;1.50;99.90
17425;DHT22;8830;50.978;5.058;2022-12-13T12:21:50;1.50;99.90
17425;DHT22;8830;50.978;5.058;2022-12-13T12:24:31;1.40;99.90
17425;DHT22;8830;50.978;5.058;2022-12-13T12:27:20;1.40;99.90
17425;DHT22;8830;50.978;5.058;2022-12-13T12:30:12;1.40;99.90
17425;DHT22;8830;50.978;5.058;2022-12-13T12:32:48;1.30;99.90
17425;DHT22;8830;50.978;5.058;2022-12-13T12:35:50;1.40;99.90
17425;DHT22;8830;50.978;5.058;2022-12-13T12:38:44;1.40;99.90
17425;DHT22;8830;50.978;5.058;2022-12-13T12:41:34;1.40;99.90
17425;DHT22;8830;50.978;5.058;2022-12-13T12:44:15;1.50;99.90
17425;DHT22;8830;50.978;5.058;2022-12-13T12:46:58;1.50;99.90
17425;DHT22;8830;50.978;5.058;2022-12-13T12:49:59;1.90;99.90
17425;DHT22;8830;50.978;5.058;2022-12-13T12:52:36;0.00;99.90
17425;DHT22;8830;50.978;5.058;2022-12-13T12:55:12;1.50;99.90
17425;DHT22;8830;50.978;5.058;2022-12-13T12:57:50;1.50;99.90
17425;DHT22;8830;50.978;5.058;2022-12-13T13:00:20;1.50;99.90
17425;DHT22;8830;50.978;5.058;2022-12-13T13:02:54;1.40;99.90
17425;DHT22;8830;50.978;5.058;2022-12-13T13:05:34;4.00;99.90
17425;DHT22;8830;50.978;5.058;2022-12-13T13:08:08;1.30;99.90
17425;DHT22;8830;50.978;5.058;2022-12-13T13:10:36;1.30;99.90
17425;DHT22;8830;50.978;5.058;2022-12-13T13:13:33;3.30;99.90
17425;DHT22;8830;50.978;5.058;2022-12-13T13:18:48;1.20;99.90
17425;DHT22;8830;50.978;5.058;2022-12-13T13:21:43;1.30;99.90
17425;DHT22;8830;50.978;5.058;2022-12-13T13:24:23;1.30;99.90
17425;DHT22;8830;50.978;5.058;2022-12-13T13:26:54;2.30;99.90
17425;DHT22;8830;50.978;5.058;2022-12-13T13:29:41;1.20;99.90
17425;DHT22;8830;50.978;5.058;2022-12-13T13:32:26;1.20;99.90
17425;DHT22;8830;50.978;5.058;2022-12-13T13:41:37;1.20;99.90
17425;DHT22;8830;50.978;5.058;2022-12-13T13:44:32;1.10;99.90
17425;DHT22;8830;50.978;5.058;2022-12-13T13:47:16;1.00;99.90
17425;DHT22;8830;50.978;5.058;2022-12-13T13:50:00;1.00;99.90
17425;DHT22;8830;50.978;5.058;2022-12-13T13:52:32;1.00;99.90
17425;DHT22;8830;50.978;5.058;2022-12-13T13:55:35;1.00;99.90
17425;DHT22;8830;50.978;5.058;2022-12-13T13:58:37;0.90;99.90
17425;DHT22;8830;50.978;5.058;2022-12-13T14:01:38;0.80;99.90
17425;DHT22;8830;50.978;5.058;2022-12-13T14:04:52;0.80;99.90
17425;DHT22;8830;50.978;5.058;2022-12-13T14:08:08;0.80;99.90
17425;DHT22;8830;50.978;5.058;2022-12-13T14:10:49;0.90;99.90
17425;DHT22;8830;50.978;5.058;2022-12-13T14:22:51;0.60;99.90
17425;DHT22;8830;50.978;5.058;2022-12-13T14:25:32;0.50;99.90
17425;DHT22;8830;50.978;5.058;2022-12-13T14:28:10;0.40;99.90
17425;DHT22;8830;50.978;5.058;2022-12-13T14:30:41;0.40;99.90
17425;DHT22;8830;50.978;5.058;2022-12-13T14:33:16;0.40;99.90
17425;DHT22;8830;50.978;5.058;2022-12-13T14:35:52;2.60;99.90
17425;DHT22;8830;50.978;5.058;2022-12-13T14:38:22;1.10;99.90
17425;DHT22;8830;50.978;5.058;2022-12-13T14:40:51;0.40;99.90
17425;DHT22;8830;50.978;5.058;2022-12-13T14:43:23;1.40;99.90
17425;DHT22;8830;50.978;5.058;2022-12-13T14:45:56;0.30;99.90
17425;DHT22;8830;50.978;5.058;2022-12-13T14:48:24;2.20;99.90
17425;DHT22;8830;50.978;5.058;2022-12-13T14:50:53;0.20;99.90
17425;DHT22;8830;50.978;5.058;2022-12-13T14:53:24;0.20;99.90
17425;DHT22;8830;50.978;5.058;2022-12-13T14:56:05;0.20;99.90
17425;DHT22;8830;50.978;5.058;2022-12-13T14:58:32;0.20;99.90
17425;DHT22;8830;50.978;5.058;2022-12-13T15:01:02;0.00;99.90
17425;DHT22;8830;50.978;5.058;2022-12-13T15:03:29;1.70;99.90
17425;DHT22;8830;50.978;5.058;2022-12-13T15:05:59;-0.10;99.90
17425;DHT22;8830;50.978;5.058;2022-12-13T15:08:27;3.50;99.90
17425;DHT22;8830;50.978;5.058;2022-12-13T15:10:55;1.80;99.90
17425;DHT22;8830;50.978;5.058;2022-12-13T15:13:27;-0.10;99.90
17425;DHT22;8830;50.978;5.058;2022-12-13T15:15:58;-0.10;99.90
17425;DHT22;8830;50.978;5.058;2022-12-13T15:18:26;-0.10;99.90
17425;DHT22;8830;50.978;5.058;2022-12-13T15:20:55;-0.10;99.90
17425;DHT22;8830;50.978;5.058;2022-12-13T15:23:26;-0.10;99.90
17425;DHT22;8830;50.978;5.058;2022-12-13T15:25:58;-0.20;99.90
17425;DHT22;8830;50.978;5.058;2022-12-13T15:28:28;-0.20;99.90
17425;DHT22;8830;50.978;5.058;2022-12-13T15:30:57;-0.20;99.90
17425;DHT22;8830;50.978;5.058;2022-12-13T15:33:27;-0.20;99.90
17425;DHT22;8830;50.978;5.058;2022-12-13T15:36:04;1.80;99.90
17425;DHT22;8830;50.978;5.058;2022-12-13T15:38:33;-0.20;99.90
17425;DHT22;8830;50.978;5.058;2022-12-13T15:43:34;-0.30;99.90
17425;DHT22;8830;50.978;5.058;2022-12-13T15:46:02;0.90;99.90
17425;DHT22;8830;50.978;5.058;2022-12-13T15:48:33;-0.30;99.90
17425;DHT22;8830;50.978;5.058;2022-12-13T15:51:10;-0.30;99.90
17425;DHT22;8830;50.978;5.058;2022-12-13T15:53:39;-0.40;99.90
17425;DHT22;8830;50.978;5.058;2022-12-13T15:56:27;-0.40;99.90
17425;DHT22;8830;50.978;5.058;2022-12-13T15:58:54;-0.40;99.90
17425;DHT22;8830;50.978;5.058;2022-12-13T16:01:29;-0.40;99.90
17425;DHT22;8830;50.978;5.058;2022-12-13T16:03:56;-0.50;99.90
17425;DHT22;8830;50.978;5.058;2022-12-13T16:06:25;-0.50;99.90
17425;DHT22;8830;50.978;5.058;2022-12-13T16:08:56;-0.50;99.90
17425;DHT22;8830;50.978;5.058;2022-12-13T16:11:26;-0.50;99.90
17425;DHT22;8830;50.978;5.058;2022-12-13T16:13:54;-0.50;99.90
17425;DHT22;8830;50.978;5.058;2022-12-13T16:16:25;-0.60;99.90
17425;DHT22;8830;50.978;5.058;2022-12-13T16:18:54;-0.60;99.90
17425;DHT22;8830;50.978;5.058;2022-12-13T16:21:22;2.50;99.90
17425;DHT22;8830;50.978;5.058;2022-12-13T16:23:50;-0.60;99.90
17425;DHT22;8830;50.978;5.058;2022-12-13T16:26:24;-0.60;99.90
17425;DHT22;8830;50.978;5.058;2022-12-13T16:28:52;-0.60;99.90
17425;DHT22;8830;50.978;5.058;2022-12-13T16:31:21;-0.60;99.90
17425;DHT22;8830;50.978;5.058;2022-12-13T16:33:48;-0.60;99.90
17425;DHT22;8830;50.978;5.058;2022-12-13T16:36:15;-0.60;99.90
17425;DHT22;8830;50.978;5.058;2022-12-13T16:38:43;-0.60;99.90
17425;DHT22;8830;50.978;5.058;2022-12-13T16:41:10;-0.60;99.90
17425;DHT22;8830;50.978;5.058;2022-12-13T16:43:51;-0.40;99.90
17425;DHT22;8830;50.978;5.058;2022-12-13T16:46:20;1.50;99.90
17425;DHT22;8830;50.978;5.058;2022-12-13T16:48:47;-0.70;99.90
17425;DHT22;8830;50.978;5.058;2022-12-13T16:53:42;-0.70;99.90
17425;DHT22;8830;50.978;5.058;2022-12-13T16:56:09;-0.70;99.90
17425;DHT22;8830;50.978;5.058;2022-12-13T16:58:40;-0.70;99.90
17425;DHT22;8830;50.978;5.058;2022-12-13T17:01:08;-0.60;99.90
17425;DHT22;8830;50.978;5.058;2022-12-13T17:03:37;2.50;99.90
17425;DHT22;8830;50.978;5.058;2022-12-13T17:06:05;-0.60;99.90
17425;DHT22;8830;50.978;5.058;2022-12-13T17:08:33;-0.60;99.90
17425;DHT22;8830;50.978;5.058;2022-12-13T17:11:01;-0.60;99.90
17425;DHT22;8830;50.978;5.058;2022-12-13T17:13:28;-0.60;99.90
17425;DHT22;8830;50.978;5.058;2022-12-13T17:15:56;-0.60;99.90
17425;DHT22;8830;50.978;5.058;2022-12-13T17:18:24;-0.60;99.90
17425;DHT22;8830;50.978;5.058;2022-12-13T17:20:51;-0.60;99.90
17425;DHT22;8830;50.978;5.058;2022-12-13T17:23:18;-0.60;99.90